sensor_id;sensor_type;location;lat;lon;timestamp;P1;durP1;ratioP1;P2;durP2;ratioP2
31676;SDS011;18385;51.572;6.578;2022-07-23T00:01:23;2.95;;;1.40;;
31676;SDS011;18385;51.572;6.578;2022-07-23T00:03:49;4.22;;;1.88;;
31676;SDS011;18385;51.572;6.578;2022-07-23T00:06:17;3.28;;;1.98;;
31676;SDS011;18385;51.572;6.578;2022-07-23T00:08:42;3.38;;;1.40;;
31676;SDS011;18385;51.572;6.578;2022-07-23T00:11:08;4.65;;;1.67;;
31676;SDS011;18385;51.572;6.578;2022-07-23T00:13:34;3.88;;;1.92;;
31676;SDS011;18385;51.572;6.578;2022-07-23T00:16:00;3.95;;;1.75;;
31676;SDS011;18385;51.572;6.578;2022-07-23T00:18:25;4.20;;;1.27;;
31676;SDS011;18385;51.572;6.578;2022-07-23T00:20:51;3.55;;;1.67;;
31676;SDS011;18385;51.572;6.578;2022-07-23T00:23:17;2.80;;;1.60;;
31676;SDS011;18385;51.572;6.578;2022-07-23T00:25:43;4.57;;;1.92;;
31676;SDS011;18385;51.572;6.578;2022-07-23T00:28:10;6.57;;;1.73;;
31676;SDS011;18385;51.572;6.578;2022-07-23T00:30:36;2.90;;;1.92;;
31676;SDS011;18385;51.572;6.578;2022-07-23T00:33:03;2.50;;;1.60;;
31676;SDS011;18385;51.572;6.578;2022-07-23T00:35:33;3.50;;;1.70;;
31676;SDS011;18385;51.572;6.578;2022-07-23T00:40:27;3.75;;;1.63;;
31676;SDS011;18385;51.572;6.578;2022-07-23T00:42:54;4.28;;;1.67;;
31676;SDS011;18385;51.572;6.578;2022-07-23T00:45:20;2.45;;;1.40;;
31676;SDS011;18385;51.572;6.578;2022-07-23T00:47:46;2.58;;;1.30;;
31676;SDS011;18385;51.572;6.578;2022-07-23T00:50:12;6.03;;;1.73;;
31676;SDS011;18385;51.572;6.578;2022-07-23T00:52:38;4.95;;;1.70;;
31676;SDS011;18385;51.572;6.578;2022-07-23T00:55:05;3.88;;;1.83;;
31676;SDS011;18385;51.572;6.578;2022-07-23T00:57:31;4.95;;;1.80;;
31676;SDS011;18385;51.572;6.578;2022-07-23T00:59:57;2.33;;;1.42;;
31676;SDS011;18385;51.572;6.578;2022-07-23T01:02:25;2.35;;;1.65;;
31676;SDS011;18385;51.572;6.578;2022-07-23T01:04:52;3.45;;;1.65;;
31676;SDS011;18385;51.572;6.578;2022-07-23T01:07:18;4.75;;;1.50;;
31676;SDS011;18385;51.572;6.578;2022-07-23T01:09:45;3.55;;;1.33;;
31676;SDS011;18385;51.572;6.578;2022-07-23T01:12:12;3.03;;;1.38;;
31676;SDS011;18385;51.572;6.578;2022-07-23T01:14:37;5.38;;;1.80;;
31676;SDS011;18385;51.572;6.578;2022-07-23T01:17:03;3.92;;;2.03;;
31676;SDS011;18385;51.572;6.578;2022-07-23T01:19:29;4.70;;;2.00;;
31676;SDS011;18385;51.572;6.578;2022-07-23T01:21:55;3.17;;;1.98;;
31676;SDS011;18385;51.572;6.578;2022-07-23T01:24:22;4.18;;;1.95;;
31676;SDS011;18385;51.572;6.578;2022-07-23T01:26:57;8.85;;;2.13;;
31676;SDS011;18385;51.572;6.578;2022-07-23T01:29:23;3.00;;;1.52;;
31676;SDS011;18385;51.572;6.578;2022-07-23T01:31:50;4.70;;;1.58;;
31676;SDS011;18385;51.572;6.578;2022-07-23T01:34:15;8.27;;;2.22;;
31676;SDS011;18385;51.572;6.578;2022-07-23T01:36:42;6.72;;;2.30;;
31676;SDS011;18385;51.572;6.578;2022-07-23T01:39:09;4.40;;;2.35;;
31676;SDS011;18385;51.572;6.578;2022-07-23T01:41:34;3.90;;;2.22;;
31676;SDS011;18385;51.572;6.578;2022-07-23T01:44:01;6.13;;;1.98;;
31676;SDS011;18385;51.572;6.578;2022-07-23T01:46:27;5.05;;;1.90;;
31676;SDS011;18385;51.572;6.578;2022-07-23T01:48:53;4.22;;;2.42;;
31676;SDS011;18385;51.572;6.578;2022-07-23T01:51:40;2.63;;;1.58;;
31676;SDS011;18385;51.572;6.578;2022-07-23T01:54:28;6.50;;;2.30;;
31676;SDS011;18385;51.572;6.578;2022-07-23T01:56:56;5.40;;;2.22;;
31676;SDS011;18385;51.572;6.578;2022-07-23T01:59:22;2.88;;;1.92;;
31676;SDS011;18385;51.572;6.578;2022-07-23T02:01:50;5.13;;;2.30;;
31676;SDS011;18385;51.572;6.578;2022-07-23T02:04:17;6.13;;;2.22;;
31676;SDS011;18385;51.572;6.578;2022-07-23T02:06:43;3.55;;;1.92;;
31676;SDS011;18385;51.572;6.578;2022-07-23T02:09:09;4.38;;;2.17;;
31676;SDS011;18385;51.572;6.578;2022-07-23T02:11:34;6.72;;;2.65;;
31676;SDS011;18385;51.572;6.578;2022-07-23T02:14:00;5.68;;;2.40;;
31676;SDS011;18385;51.572;6.578;2022-07-23T02:16:26;3.78;;;1.95;;
31676;SDS011;18385;51.572;6.578;2022-07-23T02:18:52;4.70;;;2.00;;
31676;SDS011;18385;51.572;6.578;2022-07-23T02:21:18;5.15;;;2.03;;
31676;SDS011;18385;51.572;6.578;2022-07-23T02:23:43;5.68;;;2.00;;
31676;SDS011;18385;51.572;6.578;2022-07-23T02:26:09;3.97;;;2.13;;
31676;SDS011;18385;51.572;6.578;2022-07-23T02:28:35;5.63;;;2.30;;
31676;SDS011;18385;51.572;6.578;2022-07-23T02:31:01;4.20;;;2.20;;
31676;SDS011;18385;51.572;6.578;2022-07-23T02:33:27;4.28;;;1.77;;
31676;SDS011;18385;51.572;6.578;2022-07-23T02:35:53;3.35;;;2.05;;
31676;SDS011;18385;51.572;6.578;2022-07-23T02:38:20;5.78;;;2.17;;
31676;SDS011;18385;51.572;6.578;2022-07-23T02:40:46;4.68;;;2.28;;
31676;SDS011;18385;51.572;6.578;2022-07-23T02:43:12;6.90;;;2.35;;
31676;SDS011;18385;51.572;6.578;2022-07-23T02:45:38;3.20;;;2.20;;
31676;SDS011;18385;51.572;6.578;2022-07-23T02:48:04;6.25;;;1.98;;
31676;SDS011;18385;51.572;6.578;2022-07-23T02:50:30;4.63;;;2.33;;
31676;SDS011;18385;51.572;6.578;2022-07-23T02:52:58;5.10;;;2.05;;
31676;SDS011;18385;51.572;6.578;2022-07-23T02:55:23;4.03;;;2.50;;
31676;SDS011;18385;51.572;6.578;2022-07-23T02:57:49;4.88;;;1.98;;
31676;SDS011;18385;51.572;6.578;2022-07-23T03:00:16;4.88;;;2.67;;
31676;SDS011;18385;51.572;6.578;2022-07-23T03:02:42;4.40;;;2.35;;
31676;SDS011;18385;51.572;6.578;2022-07-23T03:05:08;3.10;;;2.05;;
31676;SDS011;18385;51.572;6.578;2022-07-23T03:07:35;3.58;;;2.35;;
31676;SDS011;18385;51.572;6.578;2022-07-23T03:10:00;4.20;;;2.45;;
31676;SDS011;18385;51.572;6.578;2022-07-23T03:12:26;4.65;;;2.33;;
31676;SDS011;18385;51.572;6.578;2022-07-23T03:14:52;4.88;;;2.30;;
31676;SDS011;18385;51.572;6.578;2022-07-23T03:17:17;5.40;;;2.55;;
31676;SDS011;18385;51.572;6.578;2022-07-23T03:19:43;4.20;;;1.90;;
31676;SDS011;18385;51.572;6.578;2022-07-23T03:22:09;3.75;;;2.33;;
31676;SDS011;18385;51.572;6.578;2022-07-23T03:24:35;5.75;;;2.67;;
31676;SDS011;18385;51.572;6.578;2022-07-23T03:27:27;3.97;;;2.13;;
31676;SDS011;18385;51.572;6.578;2022-07-23T03:29:54;6.18;;;2.40;;
31676;SDS011;18385;51.572;6.578;2022-07-23T03:32:21;4.50;;;2.63;;
31676;SDS011;18385;51.572;6.578;2022-07-23T03:34:49;7.32;;;2.80;;
31676;SDS011;18385;51.572;6.578;2022-07-23T03:37:15;5.15;;;2.42;;
31676;SDS011;18385;51.572;6.578;2022-07-23T03:39:42;3.20;;;2.03;;
31676;SDS011;18385;51.572;6.578;2022-07-23T03:42:08;4.53;;;2.53;;
31676;SDS011;18385;51.572;6.578;2022-07-23T03:44:34;7.93;;;2.78;;
31676;SDS011;18385;51.572;6.578;2022-07-23T03:47:02;7.78;;;2.45;;
31676;SDS011;18385;51.572;6.578;2022-07-23T03:49:29;6.85;;;2.75;;
31676;SDS011;18385;51.572;6.578;2022-07-23T03:51:54;3.92;;;2.33;;
31676;SDS011;18385;51.572;6.578;2022-07-23T03:54:20;4.75;;;2.35;;
31676;SDS011;18385;51.572;6.578;2022-07-23T03:56:46;4.38;;;3.00;;
31676;SDS011;18385;51.572;6.578;2022-07-23T03:59:11;7.85;;;3.10;;
31676;SDS011;18385;51.572;6.578;2022-07-23T04:01:37;3.30;;;2.42;;
31676;SDS011;18385;51.572;6.578;2022-07-23T04:04:03;6.35;;;2.50;;
31676;SDS011;18385;51.572;6.578;2022-07-23T04:06:29;6.20;;;2.67;;
31676;SDS011;18385;51.572;6.578;2022-07-23T04:08:56;7.30;;;3.10;;
31676;SDS011;18385;51.572;6.578;2022-07-23T04:11:22;3.88;;;2.33;;
31676;SDS011;18385;51.572;6.578;2022-07-23T04:13:48;4.97;;;2.80;;
31676;SDS011;18385;51.572;6.578;2022-07-23T04:16:13;4.63;;;2.63;;
31676;SDS011;18385;51.572;6.578;2022-07-23T04:18:39;8.63;;;2.75;;
31676;SDS011;18385;51.572;6.578;2022-07-23T04:21:11;8.13;;;3.40;;
31676;SDS011;18385;51.572;6.578;2022-07-23T04:23:37;4.50;;;2.30;;
31676;SDS011;18385;51.572;6.578;2022-07-23T04:26:04;6.90;;;2.63;;
31676;SDS011;18385;51.572;6.578;2022-07-23T04:28:30;5.00;;;2.90;;
31676;SDS011;18385;51.572;6.578;2022-07-23T04:30:56;5.93;;;2.55;;
31676;SDS011;18385;51.572;6.578;2022-07-23T04:33:23;8.45;;;2.60;;
31676;SDS011;18385;51.572;6.578;2022-07-23T04:35:52;4.47;;;2.70;;
31676;SDS011;18385;51.572;6.578;2022-07-23T04:38:19;6.30;;;2.67;;
31676;SDS011;18385;51.572;6.578;2022-07-23T04:40:46;4.82;;;2.50;;
31676;SDS011;18385;51.572;6.578;2022-07-23T04:43:11;3.58;;;2.45;;
31676;SDS011;18385;51.572;6.578;2022-07-23T04:45:45;5.03;;;2.80;;
31676;SDS011;18385;51.572;6.578;2022-07-23T04:48:11;7.43;;;2.72;;
31676;SDS011;18385;51.572;6.578;2022-07-23T04:50:37;7.38;;;2.85;;
31676;SDS011;18385;51.572;6.578;2022-07-23T04:53:04;5.28;;;2.70;;
31676;SDS011;18385;51.572;6.578;2022-07-23T04:55:30;4.88;;;2.40;;
31676;SDS011;18385;51.572;6.578;2022-07-23T04:57:56;7.40;;;3.05;;
31676;SDS011;18385;51.572;6.578;2022-07-23T05:00:22;4.00;;;2.25;;
31676;SDS011;18385;51.572;6.578;2022-07-23T05:02:48;7.53;;;2.50;;
31676;SDS011;18385;51.572;6.578;2022-07-23T05:05:15;5.30;;;2.80;;
31676;SDS011;18385;51.572;6.578;2022-07-23T05:07:43;6.93;;;2.70;;
31676;SDS011;18385;51.572;6.578;2022-07-23T05:10:08;8.90;;;3.28;;
31676;SDS011;18385;51.572;6.578;2022-07-23T05:12:34;7.07;;;3.28;;
31676;SDS011;18385;51.572;6.578;2022-07-23T05:15:00;4.45;;;2.53;;
31676;SDS011;18385;51.572;6.578;2022-07-23T05:17:26;4.38;;;2.60;;
31676;SDS011;18385;51.572;6.578;2022-07-23T05:19:52;5.00;;;2.80;;
31676;SDS011;18385;51.572;6.578;2022-07-23T05:22:18;6.88;;;3.25;;
31676;SDS011;18385;51.572;6.578;2022-07-23T05:24:43;6.10;;;3.25;;
31676;SDS011;18385;51.572;6.578;2022-07-23T05:27:10;5.93;;;3.22;;
31676;SDS011;18385;51.572;6.578;2022-07-23T05:29:36;4.82;;;2.72;;
31676;SDS011;18385;51.572;6.578;2022-07-23T05:32:02;8.55;;;3.53;;
31676;SDS011;18385;51.572;6.578;2022-07-23T05:34:29;6.47;;;3.17;;
31676;SDS011;18385;51.572;6.578;2022-07-23T05:36:57;4.65;;;2.90;;
31676;SDS011;18385;51.572;6.578;2022-07-23T05:39:23;7.05;;;3.03;;
31676;SDS011;18385;51.572;6.578;2022-07-23T05:41:49;8.20;;;3.30;;
31676;SDS011;18385;51.572;6.578;2022-07-23T05:44:14;4.88;;;2.92;;
31676;SDS011;18385;51.572;6.578;2022-07-23T05:46:42;8.60;;;3.42;;
31676;SDS011;18385;51.572;6.578;2022-07-23T05:49:12;5.38;;;3.20;;
31676;SDS011;18385;51.572;6.578;2022-07-23T05:52:03;6.43;;;3.08;;
31676;SDS011;18385;51.572;6.578;2022-07-23T05:54:52;5.20;;;3.00;;
31676;SDS011;18385;51.572;6.578;2022-07-23T05:57:18;6.00;;;3.10;;
31676;SDS011;18385;51.572;6.578;2022-07-23T05:59:43;5.57;;;3.45;;
31676;SDS011;18385;51.572;6.578;2022-07-23T06:02:09;9.15;;;3.63;;
31676;SDS011;18385;51.572;6.578;2022-07-23T06:04:35;7.90;;;4.20;;
31676;SDS011;18385;51.572;6.578;2022-07-23T06:07:15;6.72;;;3.72;;
31676;SDS011;18385;51.572;6.578;2022-07-23T06:09:41;6.47;;;3.65;;
31676;SDS011;18385;51.572;6.578;2022-07-23T06:12:07;7.70;;;3.60;;
31676;SDS011;18385;51.572;6.578;2022-07-23T06:14:34;7.03;;;3.60;;
31676;SDS011;18385;51.572;6.578;2022-07-23T06:16:59;8.73;;;3.90;;
31676;SDS011;18385;51.572;6.578;2022-07-23T06:19:26;6.25;;;3.40;;
31676;SDS011;18385;51.572;6.578;2022-07-23T06:21:52;7.90;;;3.58;;
31676;SDS011;18385;51.572;6.578;2022-07-23T06:24:17;8.23;;;3.75;;
31676;SDS011;18385;51.572;6.578;2022-07-23T06:26:43;8.60;;;3.47;;
31676;SDS011;18385;51.572;6.578;2022-07-23T06:29:09;5.93;;;3.40;;
31676;SDS011;18385;51.572;6.578;2022-07-23T06:31:35;7.13;;;3.38;;
31676;SDS011;18385;51.572;6.578;2022-07-23T06:34:01;6.18;;;3.60;;
31676;SDS011;18385;51.572;6.578;2022-07-23T06:36:27;6.00;;;3.30;;
31676;SDS011;18385;51.572;6.578;2022-07-23T06:38:52;9.75;;;3.13;;
31676;SDS011;18385;51.572;6.578;2022-07-23T06:41:18;7.45;;;3.33;;
31676;SDS011;18385;51.572;6.578;2022-07-23T06:43:44;6.40;;;3.20;;
31676;SDS011;18385;51.572;6.578;2022-07-23T06:46:09;7.00;;;3.42;;
31676;SDS011;18385;51.572;6.578;2022-07-23T06:48:36;9.43;;;3.60;;
31676;SDS011;18385;51.572;6.578;2022-07-23T06:51:02;5.28;;;3.13;;
31676;SDS011;18385;51.572;6.578;2022-07-23T06:53:28;11.07;;;3.60;;
31676;SDS011;18385;51.572;6.578;2022-07-23T06:55:54;3.65;;;2.40;;
31676;SDS011;18385;51.572;6.578;2022-07-23T06:58:19;5.30;;;2.85;;
31676;SDS011;18385;51.572;6.578;2022-07-23T07:00:45;8.30;;;2.85;;
31676;SDS011;18385;51.572;6.578;2022-07-23T07:03:11;4.85;;;2.33;;
31676;SDS011;18385;51.572;6.578;2022-07-23T07:05:37;7.50;;;2.60;;
31676;SDS011;18385;51.572;6.578;2022-07-23T07:08:04;5.28;;;2.90;;
31676;SDS011;18385;51.572;6.578;2022-07-23T07:10:30;3.95;;;2.47;;
31676;SDS011;18385;51.572;6.578;2022-07-23T07:12:56;5.43;;;1.70;;
31676;SDS011;18385;51.572;6.578;2022-07-23T07:15:22;3.65;;;1.17;;
31676;SDS011;18385;51.572;6.578;2022-07-23T07:17:48;2.10;;;1.23;;
31676;SDS011;18385;51.572;6.578;2022-07-23T07:20:13;5.38;;;2.00;;
31676;SDS011;18385;51.572;6.578;2022-07-23T07:22:39;3.40;;;1.67;;
31676;SDS011;18385;51.572;6.578;2022-07-23T07:25:08;4.43;;;2.07;;
31676;SDS011;18385;51.572;6.578;2022-07-23T07:27:34;4.25;;;1.65;;
31676;SDS011;18385;51.572;6.578;2022-07-23T07:29:59;4.03;;;2.25;;
31676;SDS011;18385;51.572;6.578;2022-07-23T07:32:25;5.20;;;1.80;;
31676;SDS011;18385;51.572;6.578;2022-07-23T07:34:51;2.42;;;1.38;;
31676;SDS011;18385;51.572;6.578;2022-07-23T07:37:16;6.45;;;2.42;;
31676;SDS011;18385;51.572;6.578;2022-07-23T07:39:42;5.55;;;1.98;;
31676;SDS011;18385;51.572;6.578;2022-07-23T07:42:08;4.68;;;1.65;;
31676;SDS011;18385;51.572;6.578;2022-07-23T07:44:33;8.15;;;1.80;;
31676;SDS011;18385;51.572;6.578;2022-07-23T07:46:59;4.65;;;1.95;;
31676;SDS011;18385;51.572;6.578;2022-07-23T07:49:25;2.08;;;1.45;;
31676;SDS011;18385;51.572;6.578;2022-07-23T07:51:50;4.30;;;1.75;;
31676;SDS011;18385;51.572;6.578;2022-07-23T07:54:16;2.95;;;1.48;;
31676;SDS011;18385;51.572;6.578;2022-07-23T07:56:42;3.25;;;1.63;;
31676;SDS011;18385;51.572;6.578;2022-07-23T07:59:07;3.70;;;1.63;;
31676;SDS011;18385;51.572;6.578;2022-07-23T08:01:33;2.83;;;1.42;;
31676;SDS011;18385;51.572;6.578;2022-07-23T08:03:59;3.20;;;1.23;;
31676;SDS011;18385;51.572;6.578;2022-07-23T08:06:25;4.30;;;1.50;;
31676;SDS011;18385;51.572;6.578;2022-07-23T08:08:50;5.03;;;1.48;;
31676;SDS011;18385;51.572;6.578;2022-07-23T08:11:16;2.78;;;1.30;;
31676;SDS011;18385;51.572;6.578;2022-07-23T08:13:42;3.72;;;1.60;;
31676;SDS011;18385;51.572;6.578;2022-07-23T08:16:09;4.97;;;2.55;;
31676;SDS011;18385;51.572;6.578;2022-07-23T08:18:35;2.92;;;1.98;;
31676;SDS011;18385;51.572;6.578;2022-07-23T08:21:01;3.88;;;1.48;;
31676;SDS011;18385;51.572;6.578;2022-07-23T08:23:27;4.00;;;1.83;;
31676;SDS011;18385;51.572;6.578;2022-07-23T08:25:53;2.38;;;1.30;;
31676;SDS011;18385;51.572;6.578;2022-07-23T08:28:18;6.95;;;1.85;;
31676;SDS011;18385;51.572;6.578;2022-07-23T08:30:44;3.63;;;1.77;;
31676;SDS011;18385;51.572;6.578;2022-07-23T08:33:11;4.82;;;1.70;;
31676;SDS011;18385;51.572;6.578;2022-07-23T08:35:40;5.78;;;1.77;;
31676;SDS011;18385;51.572;6.578;2022-07-23T08:38:08;3.92;;;1.50;;
31676;SDS011;18385;51.572;6.578;2022-07-23T08:40:39;3.50;;;1.70;;
31676;SDS011;18385;51.572;6.578;2022-07-23T08:43:08;2.78;;;1.65;;
31676;SDS011;18385;51.572;6.578;2022-07-23T08:45:36;6.10;;;1.85;;
31676;SDS011;18385;51.572;6.578;2022-07-23T08:48:08;5.07;;;1.65;;
31676;SDS011;18385;51.572;6.578;2022-07-23T08:50:37;2.03;;;1.23;;
31676;SDS011;18385;51.572;6.578;2022-07-23T08:53:06;3.00;;;1.42;;
31676;SDS011;18385;51.572;6.578;2022-07-23T08:55:32;4.25;;;1.67;;
31676;SDS011;18385;51.572;6.578;2022-07-23T08:57:58;2.70;;;1.50;;
31676;SDS011;18385;51.572;6.578;2022-07-23T09:00:24;1.73;;;1.13;;
31676;SDS011;18385;51.572;6.578;2022-07-23T09:02:50;2.80;;;1.60;;
31676;SDS011;18385;51.572;6.578;2022-07-23T09:05:16;5.43;;;1.10;;
31676;SDS011;18385;51.572;6.578;2022-07-23T09:24:09;3.72;;;1.23;;
31676;SDS011;18385;51.572;6.578;2022-07-23T09:34:26;2.00;;;1.08;;
31676;SDS011;18385;51.572;6.578;2022-07-23T09:36:54;3.35;;;1.20;;
31676;SDS011;18385;51.572;6.578;2022-07-23T09:39:24;5.03;;;0.90;;
31676;SDS011;18385;51.572;6.578;2022-07-23T09:41:52;2.92;;;1.20;;
31676;SDS011;18385;51.572;6.578;2022-07-23T09:44:18;1.67;;;0.80;;
31676;SDS011;18385;51.572;6.578;2022-07-23T09:46:46;2.17;;;1.00;;
31676;SDS011;18385;51.572;6.578;2022-07-23T09:49:14;2.90;;;1.20;;
31676;SDS011;18385;51.572;6.578;2022-07-23T09:54:25;3.42;;;1.00;;
31676;SDS011;18385;51.572;6.578;2022-07-23T09:56:54;2.97;;;1.20;;
31676;SDS011;18385;51.572;6.578;2022-07-23T09:59:22;4.00;;;1.30;;
31676;SDS011;18385;51.572;6.578;2022-07-23T10:01:51;2.45;;;1.20;;
31676;SDS011;18385;51.572;6.578;2022-07-23T10:04:18;3.10;;;1.08;;
31676;SDS011;18385;51.572;6.578;2022-07-23T10:07:12;2.83;;;1.10;;
31676;SDS011;18385;51.572;6.578;2022-07-23T10:10:01;2.90;;;0.90;;
31676;SDS011;18385;51.572;6.578;2022-07-23T10:12:47;2.25;;;1.20;;
31676;SDS011;18385;51.572;6.578;2022-07-23T10:15:16;3.40;;;0.70;;
31676;SDS011;18385;51.572;6.578;2022-07-23T10:17:42;3.47;;;1.33;;
31676;SDS011;18385;51.572;6.578;2022-07-23T10:20:07;3.67;;;0.98;;
31676;SDS011;18385;51.572;6.578;2022-07-23T10:22:35;4.10;;;1.10;;
31676;SDS011;18385;51.572;6.578;2022-07-23T10:28:30;3.83;;;0.90;;
31676;SDS011;18385;51.572;6.578;2022-07-23T10:33:49;4.38;;;0.60;;
31676;SDS011;18385;51.572;6.578;2022-07-23T10:36:49;1.73;;;0.70;;
31676;SDS011;18385;51.572;6.578;2022-07-23T10:39:28;1.52;;;0.52;;
31676;SDS011;18385;51.572;6.578;2022-07-23T10:42:13;1.08;;;0.60;;
31676;SDS011;18385;51.572;6.578;2022-07-23T10:44:44;3.20;;;1.00;;
31676;SDS011;18385;51.572;6.578;2022-07-23T10:47:21;2.03;;;0.80;;
31676;SDS011;18385;51.572;6.578;2022-07-23T10:55:40;2.63;;;0.88;;
31676;SDS011;18385;51.572;6.578;2022-07-23T10:58:10;1.65;;;1.00;;
31676;SDS011;18385;51.572;6.578;2022-07-23T11:00:36;1.20;;;0.70;;
31676;SDS011;18385;51.572;6.578;2022-07-23T11:03:04;1.10;;;0.70;;
31676;SDS011;18385;51.572;6.578;2022-07-23T11:05:50;1.33;;;0.82;;
31676;SDS011;18385;51.572;6.578;2022-07-23T11:08:17;2.47;;;0.60;;
31676;SDS011;18385;51.572;6.578;2022-07-23T11:10:46;3.50;;;0.70;;
31676;SDS011;18385;51.572;6.578;2022-07-23T11:13:31;2.00;;;0.85;;
31676;SDS011;18385;51.572;6.578;2022-07-23T11:37:03;1.02;;;0.60;;
31676;SDS011;18385;51.572;6.578;2022-07-23T11:39:31;3.00;;;1.00;;
31676;SDS011;18385;51.572;6.578;2022-07-23T11:41:58;5.32;;;0.90;;
31676;SDS011;18385;51.572;6.578;2022-07-23T11:44:28;2.28;;;1.13;;
31676;SDS011;18385;51.572;6.578;2022-07-23T11:47:05;3.33;;;0.60;;
31676;SDS011;18385;51.572;6.578;2022-07-23T11:49:33;1.95;;;1.10;;
31676;SDS011;18385;51.572;6.578;2022-07-23T11:52:06;1.52;;;0.80;;
31676;SDS011;18385;51.572;6.578;2022-07-23T11:54:49;2.67;;;0.95;;
31676;SDS011;18385;51.572;6.578;2022-07-23T11:57:27;2.03;;;1.17;;
31676;SDS011;18385;51.572;6.578;2022-07-23T12:00:01;2.08;;;1.17;;
31676;SDS011;18385;51.572;6.578;2022-07-23T12:02:39;1.58;;;0.80;;
31676;SDS011;18385;51.572;6.578;2022-07-23T12:05:06;1.98;;;1.30;;
31676;SDS011;18385;51.572;6.578;2022-07-23T12:07:35;1.58;;;0.77;;
31676;SDS011;18385;51.572;6.578;2022-07-23T12:10:09;0.98;;;0.68;;
31676;SDS011;18385;51.572;6.578;2022-07-23T12:15:02;1.40;;;0.77;;
31676;SDS011;18385;51.572;6.578;2022-07-23T12:17:30;3.80;;;0.82;;
31676;SDS011;18385;51.572;6.578;2022-07-23T12:19:59;3.58;;;0.93;;
31676;SDS011;18385;51.572;6.578;2022-07-23T12:22:33;2.13;;;1.10;;
31676;SDS011;18385;51.572;6.578;2022-07-23T12:25:03;4.25;;;1.20;;
31676;SDS011;18385;51.572;6.578;2022-07-23T12:27:35;3.80;;;1.10;;
31676;SDS011;18385;51.572;6.578;2022-07-23T12:30:17;1.52;;;0.85;;
31676;SDS011;18385;51.572;6.578;2022-07-23T12:32:49;2.63;;;1.17;;
31676;SDS011;18385;51.572;6.578;2022-07-23T12:35:16;2.92;;;1.30;;
31676;SDS011;18385;51.572;6.578;2022-07-23T12:37:42;1.50;;;0.85;;
31676;SDS011;18385;51.572;6.578;2022-07-23T12:40:19;2.13;;;1.33;;
31676;SDS011;18385;51.572;6.578;2022-07-23T12:43:25;2.10;;;1.20;;
31676;SDS011;18385;51.572;6.578;2022-07-23T12:46:04;1.88;;;0.98;;
31676;SDS011;18385;51.572;6.578;2022-07-23T12:48:34;1.80;;;0.82;;
31676;SDS011;18385;51.572;6.578;2022-07-23T12:51:02;2.67;;;1.38;;
31676;SDS011;18385;51.572;6.578;2022-07-23T12:53:39;4.20;;;1.20;;
31676;SDS011;18385;51.572;6.578;2022-07-23T12:56:13;2.53;;;0.85;;
31676;SDS011;18385;51.572;6.578;2022-07-23T12:58:53;2.25;;;1.30;;
31676;SDS011;18385;51.572;6.578;2022-07-23T13:01:45;2.17;;;0.95;;
31676;SDS011;18385;51.572;6.578;2022-07-23T13:04:20;3.97;;;1.60;;
31676;SDS011;18385;51.572;6.578;2022-07-23T13:09:15;3.03;;;1.00;;
31676;SDS011;18385;51.572;6.578;2022-07-23T13:11:44;1.73;;;1.10;;
31676;SDS011;18385;51.572;6.578;2022-07-23T13:14:11;2.42;;;1.25;;
31676;SDS011;18385;51.572;6.578;2022-07-23T13:16:38;4.38;;;0.90;;
31676;SDS011;18385;51.572;6.578;2022-07-23T13:19:05;1.80;;;0.82;;
31676;SDS011;18385;51.572;6.578;2022-07-23T13:21:31;2.17;;;0.80;;
31676;SDS011;18385;51.572;6.578;2022-07-23T13:23:57;2.42;;;1.00;;
31676;SDS011;18385;51.572;6.578;2022-07-23T13:26:23;2.83;;;0.90;;
31676;SDS011;18385;51.572;6.578;2022-07-23T13:28:50;1.65;;;0.88;;
31676;SDS011;18385;51.572;6.578;2022-07-23T13:31:16;1.65;;;0.85;;
31676;SDS011;18385;51.572;6.578;2022-07-23T13:33:42;1.35;;;0.70;;
31676;SDS011;18385;51.572;6.578;2022-07-23T13:36:07;1.20;;;0.80;;
31676;SDS011;18385;51.572;6.578;2022-07-23T13:38:33;3.42;;;0.90;;
31676;SDS011;18385;51.572;6.578;2022-07-23T13:40:59;2.08;;;0.90;;
31676;SDS011;18385;51.572;6.578;2022-07-23T13:43:25;2.10;;;0.95;;
31676;SDS011;18385;51.572;6.578;2022-07-23T13:45:52;2.80;;;1.20;;
31676;SDS011;18385;51.572;6.578;2022-07-23T13:48:18;2.63;;;1.20;;
31676;SDS011;18385;51.572;6.578;2022-07-23T13:50:45;2.17;;;0.98;;
31676;SDS011;18385;51.572;6.578;2022-07-23T13:53:13;3.17;;;1.10;;
31676;SDS011;18385;51.572;6.578;2022-07-23T13:55:40;2.22;;;1.42;;
31676;SDS011;18385;51.572;6.578;2022-07-23T13:58:07;2.58;;;0.82;;
31676;SDS011;18385;51.572;6.578;2022-07-23T14:00:35;3.28;;;1.10;;
31676;SDS011;18385;51.572;6.578;2022-07-23T14:03:03;2.60;;;0.90;;
31676;SDS011;18385;51.572;6.578;2022-07-23T14:05:29;2.92;;;1.40;;
31676;SDS011;18385;51.572;6.578;2022-07-23T14:07:55;2.42;;;1.45;;
31676;SDS011;18385;51.572;6.578;2022-07-23T14:10:24;2.75;;;1.17;;
31676;SDS011;18385;51.572;6.578;2022-07-23T14:12:51;1.35;;;0.90;;
31676;SDS011;18385;51.572;6.578;2022-07-23T14:15:24;2.00;;;1.00;;
31676;SDS011;18385;51.572;6.578;2022-07-23T14:17:52;3.13;;;1.20;;
31676;SDS011;18385;51.572;6.578;2022-07-23T14:20:18;1.95;;;1.02;;
31676;SDS011;18385;51.572;6.578;2022-07-23T14:22:44;2.17;;;1.15;;
31676;SDS011;18385;51.572;6.578;2022-07-23T14:25:10;2.20;;;1.20;;
31676;SDS011;18385;51.572;6.578;2022-07-23T14:27:37;1.75;;;1.05;;
31676;SDS011;18385;51.572;6.578;2022-07-23T14:30:04;1.25;;;0.80;;
31676;SDS011;18385;51.572;6.578;2022-07-23T14:32:31;1.27;;;0.93;;
31676;SDS011;18385;51.572;6.578;2022-07-23T14:34:57;1.98;;;1.13;;
31676;SDS011;18385;51.572;6.578;2022-07-23T14:37:22;2.90;;;1.15;;
31676;SDS011;18385;51.572;6.578;2022-07-23T14:39:50;2.13;;;1.10;;
31676;SDS011;18385;51.572;6.578;2022-07-23T14:42:17;2.50;;;1.35;;
31676;SDS011;18385;51.572;6.578;2022-07-23T14:44:43;2.55;;;1.13;;
31676;SDS011;18385;51.572;6.578;2022-07-23T14:47:09;2.25;;;1.23;;
31676;SDS011;18385;51.572;6.578;2022-07-23T14:49:34;1.30;;;0.90;;
31676;SDS011;18385;51.572;6.578;2022-07-23T14:52:01;1.75;;;1.02;;
31676;SDS011;18385;51.572;6.578;2022-07-23T14:54:27;2.20;;;0.90;;
31676;SDS011;18385;51.572;6.578;2022-07-23T14:56:54;1.52;;;1.10;;
31676;SDS011;18385;51.572;6.578;2022-07-23T14:59:22;3.47;;;1.10;;
31676;SDS011;18385;51.572;6.578;2022-07-23T15:01:48;2.08;;;1.30;;
31676;SDS011;18385;51.572;6.578;2022-07-23T15:04:14;1.83;;;1.15;;
31676;SDS011;18385;51.572;6.578;2022-07-23T15:06:40;2.85;;;1.27;;
31676;SDS011;18385;51.572;6.578;2022-07-23T15:09:06;4.47;;;1.10;;
31676;SDS011;18385;51.572;6.578;2022-07-23T15:11:31;1.63;;;1.00;;
31676;SDS011;18385;51.572;6.578;2022-07-23T15:14:02;2.47;;;0.90;;
31676;SDS011;18385;51.572;6.578;2022-07-23T15:16:29;3.80;;;1.17;;
31676;SDS011;18385;51.572;6.578;2022-07-23T15:18:55;2.08;;;1.10;;
31676;SDS011;18385;51.572;6.578;2022-07-23T15:21:21;3.78;;;1.10;;
31676;SDS011;18385;51.572;6.578;2022-07-23T15:23:47;1.23;;;0.73;;
31676;SDS011;18385;51.572;6.578;2022-07-23T15:26:13;2.25;;;1.20;;
31676;SDS011;18385;51.572;6.578;2022-07-23T15:28:40;2.65;;;1.00;;
31676;SDS011;18385;51.572;6.578;2022-07-23T15:31:07;2.92;;;1.30;;
31676;SDS011;18385;51.572;6.578;2022-07-23T15:33:33;2.30;;;1.02;;
31676;SDS011;18385;51.572;6.578;2022-07-23T15:36:00;2.40;;;1.00;;
31676;SDS011;18385;51.572;6.578;2022-07-23T15:38:26;2.30;;;1.10;;
31676;SDS011;18385;51.572;6.578;2022-07-23T15:40:53;1.70;;;1.10;;
31676;SDS011;18385;51.572;6.578;2022-07-23T15:43:20;3.42;;;1.13;;
31676;SDS011;18385;51.572;6.578;2022-07-23T15:45:46;2.00;;;1.20;;
31676;SDS011;18385;51.572;6.578;2022-07-23T15:48:12;2.20;;;0.90;;
31676;SDS011;18385;51.572;6.578;2022-07-23T15:50:38;2.05;;;1.00;;
31676;SDS011;18385;51.572;6.578;2022-07-23T15:53:04;1.75;;;1.13;;
31676;SDS011;18385;51.572;6.578;2022-07-23T15:55:30;3.50;;;1.20;;
31676;SDS011;18385;51.572;6.578;2022-07-23T15:57:56;1.52;;;1.08;;
31676;SDS011;18385;51.572;6.578;2022-07-23T16:00:22;1.73;;;0.93;;